sensor_id;sensor_type;location;lat;lon;timestamp;pressure;altitude;pressure_sealevel;temperature;humidity
51287;BME280;37364;46.974;18.916;2024-02-26T00:00:59;152496.16;;;8.52;100.00
51287;BME280;37364;46.974;18.916;2024-02-26T00:03:29;152492.34;;;8.51;100.00
51287;BME280;37364;46.974;18.916;2024-02-26T00:06:02;152497.50;;;8.53;100.00
51287;BME280;37364;46.974;18.916;2024-02-26T00:08:33;152493.63;;;8.51;100.00
51287;BME280;37364;46.974;18.916;2024-02-26T00:11:05;152491.00;;;8.50;100.00
51287;BME280;37364;46.974;18.916;2024-02-26T00:13:35;152491.00;;;8.50;100.00
51287;BME280;37364;46.974;18.916;2024-02-26T00:16:06;152494.91;;;8.52;100.00
51287;BME280;37364;46.974;18.916;2024-02-26T00:18:36;152482.00;;;8.47;100.00
51287;BME280;37364;46.974;18.916;2024-02-26T00:21:06;152476.81;;;8.45;100.00
51287;BME280;37364;46.974;18.916;2024-02-26T00:23:36;152482.00;;;8.47;100.00
51287;BME280;37364;46.974;18.916;2024-02-26T00:26:09;152476.81;;;8.45;100.00
51287;BME280;37364;46.974;18.916;2024-02-26T00:28:39;152488.44;;;8.49;100.00
51287;BME280;37364;46.974;18.916;2024-02-26T00:31:08;152483.28;;;8.47;100.00
51287;BME280;37364;46.974;18.916;2024-02-26T00:33:38;152491.00;;;8.50;100.00
51287;BME280;37364;46.974;18.916;2024-02-26T00:36:09;152487.16;;;8.49;100.00
51287;BME280;37364;46.974;18.916;2024-02-26T00:38:39;152483.28;;;8.47;100.00
51287;BME280;37364;46.974;18.916;2024-02-26T00:41:12;152491.00;;;8.50;100.00
51287;BME280;37364;46.974;18.916;2024-02-26T00:43:42;152484.56;;;8.48;100.00
51287;BME280;37364;46.974;18.916;2024-02-26T00:46:12;152485.84;;;8.48;100.00
51287;BME280;37364;46.974;18.916;2024-02-26T00:48:42;152489.72;;;8.50;100.00
51287;BME280;37364;46.974;18.916;2024-02-26T00:51:12;152491.00;;;8.50;100.00
51287;BME280;37364;46.974;18.916;2024-02-26T00:53:42;152487.16;;;8.49;100.00
51287;BME280;37364;46.974;18.916;2024-02-26T00:56:15;152484.56;;;8.48;100.00
51287;BME280;37364;46.974;18.916;2024-02-26T00:58:45;152476.81;;;8.45;100.00
51287;BME280;37364;46.974;18.916;2024-02-26T01:01:15;152471.66;;;8.43;100.00
51287;BME280;37364;46.974;18.916;2024-02-26T01:03:45;152475.50;;;8.44;100.00
51287;BME280;37364;46.974;18.916;2024-02-26T01:06:15;152483.28;;;8.47;100.00
51287;BME280;37364;46.974;18.916;2024-02-26T01:08:45;152466.38;;;8.41;100.00
51287;BME280;37364;46.974;18.916;2024-02-26T01:11:18;152461.22;;;8.39;100.00
51287;BME280;37364;46.974;18.916;2024-02-26T01:13:48;152453.50;;;8.36;100.00
51287;BME280;37364;46.974;18.916;2024-02-26T01:16:20;152448.31;;;8.34;100.00
51287;BME280;37364;46.974;18.916;2024-02-26T01:18:50;152444.44;;;8.32;100.00
51287;BME280;37364;46.974;18.916;2024-02-26T01:21:20;152441.81;;;8.31;100.00
51287;BME280;37364;46.974;18.916;2024-02-26T01:23:50;152443.16;;;8.31;100.00
51287;BME280;37364;46.974;18.916;2024-02-26T01:26:23;152444.44;;;8.32;100.00
51287;BME280;37364;46.974;18.916;2024-02-26T01:28:53;152439.28;;;8.30;100.00
51287;BME280;37364;46.974;18.916;2024-02-26T01:31:23;152436.66;;;8.29;100.00
51287;BME280;37364;46.974;18.916;2024-02-26T01:33:53;152436.66;;;8.29;100.00
51287;BME280;37364;46.974;18.916;2024-02-26T01:36:24;152434.09;;;8.28;100.00
51287;BME280;37364;46.974;18.916;2024-02-26T01:38:54;152432.81;;;8.27;100.00
51287;BME280;37364;46.974;18.916;2024-02-26T01:41:26;152432.81;;;8.27;100.00
51287;BME280;37364;46.974;18.916;2024-02-26T01:43:56;152425.03;;;8.24;100.00
51287;BME280;37364;46.974;18.916;2024-02-26T01:46:26;152421.16;;;8.23;100.00
51287;BME280;37364;46.974;18.916;2024-02-26T01:48:56;152426.31;;;8.25;100.00
51287;BME280;37364;46.974;18.916;2024-02-26T01:51:26;152432.81;;;8.27;100.00
51287;BME280;37364;46.974;18.916;2024-02-26T01:53:57;152418.59;;;8.22;100.00
51287;BME280;37364;46.974;18.916;2024-02-26T01:56:31;152418.59;;;8.22;100.00
51287;BME280;37364;46.974;18.916;2024-02-26T01:59:01;152414.72;;;8.20;100.00
51287;BME280;37364;46.974;18.916;2024-02-26T02:01:33;152408.25;;;8.18;100.00
51287;BME280;37364;46.974;18.916;2024-02-26T02:04:03;152390.16;;;8.10;100.00
51287;BME280;37364;46.974;18.916;2024-02-26T02:06:35;152395.31;;;8.12;100.00
51287;BME280;37364;46.974;18.916;2024-02-26T02:09:06;152396.59;;;8.13;100.00
51287;BME280;37364;46.974;18.916;2024-02-26T02:11:40;152395.31;;;8.12;100.00
51287;BME280;37364;46.974;18.916;2024-02-26T02:14:10;152401.75;;;8.15;100.00
51287;BME280;37364;46.974;18.916;2024-02-26T02:16:40;152397.94;;;8.14;100.00
51287;BME280;37364;46.974;18.916;2024-02-26T02:19:10;152397.94;;;8.14;100.00
51287;BME280;37364;46.974;18.916;2024-02-26T02:21:43;152404.38;;;8.16;100.00
51287;BME280;37364;46.974;18.916;2024-02-26T02:24:13;152400.47;;;8.15;100.00
51287;BME280;37364;46.974;18.916;2024-02-26T02:26:43;152395.31;;;8.12;100.00
51287;BME280;37364;46.974;18.916;2024-02-26T02:29:13;152399.22;;;8.14;100.00
51287;BME280;37364;46.974;18.916;2024-02-26T02:31:44;152397.94;;;8.14;100.00
51287;BME280;37364;46.974;18.916;2024-02-26T02:34:14;152390.16;;;8.10;100.00
51287;BME280;37364;46.974;18.916;2024-02-26T02:36:54;152386.25;;;8.09;100.00
51287;BME280;37364;46.974;18.916;2024-02-26T02:39:24;152378.53;;;8.06;100.00
51287;BME280;37364;46.974;18.916;2024-02-26T02:41:54;152363.03;;;8.00;100.00
51287;BME280;37364;46.974;18.916;2024-02-26T02:44:24;152370.75;;;8.03;100.00
51287;BME280;37364;46.974;18.916;2024-02-26T02:46:54;152379.81;;;8.06;100.00
51287;BME280;37364;46.974;18.916;2024-02-26T02:49:24;152366.88;;;8.01;100.00
51287;BME280;37364;46.974;18.916;2024-02-26T02:51:57;152360.44;;;7.99;100.00
51287;BME280;37364;46.974;18.916;2024-02-26T02:54:28;152342.31;;;7.91;100.00
51287;BME280;37364;46.974;18.916;2024-02-26T02:56:58;152339.75;;;7.90;100.00
51287;BME280;37364;46.974;18.916;2024-02-26T02:59:28;152333.31;;;7.88;100.00
51287;BME280;37364;46.974;18.916;2024-02-26T03:01:58;152326.81;;;7.85;100.00
51287;BME280;37364;46.974;18.916;2024-02-26T03:04:28;152319.09;;;7.82;100.00
51287;BME280;37364;46.974;18.916;2024-02-26T03:07:01;152315.22;;;7.81;100.00
51287;BME280;37364;46.974;18.916;2024-02-26T03:09:31;152303.56;;;7.76;100.00
51287;BME280;37364;46.974;18.916;2024-02-26T03:12:01;152301.00;;;7.75;100.00
51287;BME280;37364;46.974;18.916;2024-02-26T03:14:31;152297.09;;;7.73;100.00
51287;BME280;37364;46.974;18.916;2024-02-26T03:17:01;152295.81;;;7.73;100.00
51287;BME280;37364;46.974;18.916;2024-02-26T03:19:31;152286.78;;;7.69;100.00
51287;BME280;37364;46.974;18.916;2024-02-26T03:22:04;152285.50;;;7.69;100.00
51287;BME280;37364;46.974;18.916;2024-02-26T03:24:34;152295.81;;;7.73;100.00
51287;BME280;37364;46.974;18.916;2024-02-26T03:27:04;152279.03;;;7.66;100.00
51287;BME280;37364;46.974;18.916;2024-02-26T03:29:37;152262.22;;;7.60;100.00
51287;BME280;37364;46.974;18.916;2024-02-26T03:32:08;152264.84;;;7.61;100.00
51287;BME280;37364;46.974;18.916;2024-02-26T03:34:38;152255.78;;;7.57;100.00
51287;BME280;37364;46.974;18.916;2024-02-26T03:37:11;152251.88;;;7.56;100.00
51287;BME280;37364;46.974;18.916;2024-02-26T03:39:42;152233.78;;;7.48;100.00
51287;BME280;37364;46.974;18.916;2024-02-26T03:42:12;152223.47;;;7.44;100.00
51287;BME280;37364;46.974;18.916;2024-02-26T03:44:43;152213.13;;;7.40;100.00
51287;BME280;37364;46.974;18.916;2024-02-26T03:47:13;152202.81;;;7.36;100.00
51287;BME280;37364;46.974;18.916;2024-02-26T03:49:43;152192.47;;;7.32;100.00
51287;BME280;37364;46.974;18.916;2024-02-26T03:52:16;152197.63;;;7.34;100.00
51287;BME280;37364;46.974;18.916;2024-02-26T03:54:45;152187.31;;;7.30;100.00
51287;BME280;37364;46.974;18.916;2024-02-26T03:57:15;152223.47;;;7.44;100.00
51287;BME280;37364;46.974;18.916;2024-02-26T03:59:49;152205.41;;;7.37;100.00
51287;BME280;37364;46.974;18.916;2024-02-26T04:02:19;152184.69;;;7.29;100.00
51287;BME280;37364;46.974;18.916;2024-02-26T04:04:50;152183.41;;;7.28;100.00
51287;BME280;37364;46.974;18.916;2024-02-26T04:07:22;152178.25;;;7.26;100.00
51287;BME280;37364;46.974;18.916;2024-02-26T04:09:53;152169.22;;;7.23;100.00
51287;BME280;37364;46.974;18.916;2024-02-26T04:12:23;152166.66;;;7.22;100.00
51287;BME280;37364;46.974;18.916;2024-02-26T04:14:53;152171.81;;;7.24;100.00
51287;BME280;37364;46.974;18.916;2024-02-26T04:17:23;152156.31;;;7.18;100.00
51287;BME280;37364;46.974;18.916;2024-02-26T04:19:53;152160.16;;;7.19;100.00
51287;BME280;37364;46.974;18.916;2024-02-26T04:22:26;152169.22;;;7.23;100.00
51287;BME280;37364;46.974;18.916;2024-02-26T04:24:56;152161.50;;;7.20;100.00
51287;BME280;37364;46.974;18.916;2024-02-26T04:27:26;152165.31;;;7.21;100.00
51287;BME280;37364;46.974;18.916;2024-02-26T04:29:56;152173.09;;;7.24;100.00
51287;BME280;37364;46.974;18.916;2024-02-26T04:32:26;152176.97;;;7.26;100.00
51287;BME280;37364;46.974;18.916;2024-02-26T04:34:56;152188.59;;;7.30;100.00
51287;BME280;37364;46.974;18.916;2024-02-26T04:37:29;152207.97;;;7.38;100.00
51287;BME280;37364;46.974;18.916;2024-02-26T04:40:00;152219.56;;;7.43;100.00
51287;BME280;37364;46.974;18.916;2024-02-26T04:42:31;152215.75;;;7.41;100.00
51287;BME280;37364;46.974;18.916;2024-02-26T04:45:01;152210.56;;;7.39;100.00
51287;BME280;37364;46.974;18.916;2024-02-26T04:47:31;152209.25;;;7.39;100.00
51287;BME280;37364;46.974;18.916;2024-02-26T04:50:01;152193.75;;;7.32;100.00
51287;BME280;37364;46.974;18.916;2024-02-26T04:52:34;152200.25;;;7.35;100.00
51287;BME280;37364;46.974;18.916;2024-02-26T04:55:04;152195.03;;;7.33;100.00
51287;BME280;37364;46.974;18.916;2024-02-26T04:57:34;152179.53;;;7.27;100.00
51287;BME280;37364;46.974;18.916;2024-02-26T05:00:05;152176.97;;;7.26;100.00
51287;BME280;37364;46.974;18.916;2024-02-26T05:02:36;152162.75;;;7.20;100.00
51287;BME280;37364;46.974;18.916;2024-02-26T05:05:08;152166.66;;;7.22;100.00
51287;BME280;37364;46.974;18.916;2024-02-26T05:07:42;152164.03;;;7.21;100.00
51287;BME280;37364;46.974;18.916;2024-02-26T05:10:12;152186.03;;;7.29;100.00
51287;BME280;37364;46.974;18.916;2024-02-26T05:12:42;152188.59;;;7.30;100.00
51287;BME280;37364;46.974;18.916;2024-02-26T05:15:14;152184.69;;;7.29;100.00
51287;BME280;37364;46.974;18.916;2024-02-26T05:17:45;152170.53;;;7.23;100.00
51287;BME280;37364;46.974;18.916;2024-02-26T05:20:15;152171.81;;;7.24;100.00
51287;BME280;37364;46.974;18.916;2024-02-26T05:22:48;152171.81;;;7.24;100.00
51287;BME280;37364;46.974;18.916;2024-02-26T05:25:18;152184.69;;;7.29;100.00
51287;BME280;37364;46.974;18.916;2024-02-26T05:27:48;152192.47;;;7.32;100.00
51287;BME280;37364;46.974;18.916;2024-02-26T05:30:18;152227.34;;;7.46;100.00
51287;BME280;37364;46.974;18.916;2024-02-26T05:32:48;152237.69;;;7.50;100.00
51287;BME280;37364;46.974;18.916;2024-02-26T05:35:18;152254.50;;;7.57;100.00
51287;BME280;37364;46.974;18.916;2024-02-26T05:37:51;152257.06;;;7.58;100.00
51287;BME280;37364;46.974;18.916;2024-02-26T05:40:21;152244.13;;;7.52;100.00
51287;BME280;37364;46.974;18.916;2024-02-26T05:42:48;152251.88;;;7.56;100.00
51287;BME280;37364;46.974;18.916;2024-02-26T05:45:18;152253.16;;;7.56;100.00
51287;BME280;37364;46.974;18.916;2024-02-26T05:47:56;152245.44;;;7.53;100.00
51287;BME280;37364;46.974;18.916;2024-02-26T05:50:26;152245.44;;;7.53;100.00
51287;BME280;37364;46.974;18.916;2024-02-26T05:52:58;152250.63;;;7.55;100.00
51287;BME280;37364;46.974;18.916;2024-02-26T05:55:28;152255.78;;;7.57;100.00
51287;BME280;37364;46.974;18.916;2024-02-26T05:57:58;152262.22;;;7.60;100.00
51287;BME280;37364;46.974;18.916;2024-02-26T06:00:28;152262.22;;;7.60;100.00
51287;BME280;37364;46.974;18.916;2024-02-26T06:02:59;152260.94;;;7.59;100.00
51287;BME280;37364;46.974;18.916;2024-02-26T06:05:29;152270.00;;;7.63;100.00
51287;BME280;37364;46.974;18.916;2024-02-26T06:08:02;152280.31;;;7.67;100.00
51287;BME280;37364;46.974;18.916;2024-02-26T06:10:33;152285.50;;;7.69;100.00
51287;BME280;37364;46.974;18.916;2024-02-26T06:13:04;152290.66;;;7.71;100.00
51287;BME280;37364;46.974;18.916;2024-02-26T06:15:34;152289.38;;;7.70;100.00
51287;BME280;37364;46.974;18.916;2024-02-26T06:18:04;152290.66;;;7.71;100.00
51287;BME280;37364;46.974;18.916;2024-02-26T06:20:35;152290.66;;;7.71;100.00
51287;BME280;37364;46.974;18.916;2024-02-26T06:23:07;152301.00;;;7.75;100.00
51287;BME280;37364;46.974;18.916;2024-02-26T06:25:37;152315.22;;;7.81;100.00
51287;BME280;37364;46.974;18.916;2024-02-26T06:28:09;152334.59;;;7.88;100.00
51287;BME280;37364;46.974;18.916;2024-02-26T06:30:39;152344.94;;;7.92;100.00
51287;BME280;37364;46.974;18.916;2024-02-26T06:33:11;152357.81;;;7.98;100.00
51287;BME280;37364;46.974;18.916;2024-02-26T06:35:41;152374.66;;;8.04;100.00
51287;BME280;37364;46.974;18.916;2024-02-26T06:38:14;152379.81;;;8.06;100.00
51287;BME280;37364;46.974;18.916;2024-02-26T06:40:46;152392.75;;;8.11;100.00
51287;BME280;37364;46.974;18.916;2024-02-26T06:43:16;152401.75;;;8.15;100.00
51287;BME280;37364;46.974;18.916;2024-02-26T06:45:50;152410.81;;;8.19;100.00
51287;BME280;37364;46.974;18.916;2024-02-26T06:48:23;152419.88;;;8.22;100.00
51287;BME280;37364;46.974;18.916;2024-02-26T06:50:53;152438.00;;;8.29;100.00
51287;BME280;37364;46.974;18.916;2024-02-26T06:53:26;152447.03;;;8.33;100.00
51287;BME280;37364;46.974;18.916;2024-02-26T06:55:56;152457.38;;;8.37;100.00
51287;BME280;37364;46.974;18.916;2024-02-26T06:58:26;152470.31;;;8.42;100.00
51287;BME280;37364;46.974;18.916;2024-02-26T07:00:56;152483.28;;;8.47;100.00
51287;BME280;37364;46.974;18.916;2024-02-26T07:03:26;152505.22;;;8.56;100.00
51287;BME280;37364;46.974;18.916;2024-02-26T07:05:57;152524.63;;;8.64;100.00
51287;BME280;37364;46.974;18.916;2024-02-26T07:08:30;152549.19;;;8.74;100.00
51287;BME280;37364;46.974;18.916;2024-02-26T07:11:00;152567.31;;;8.81;100.00
51287;BME280;37364;46.974;18.916;2024-02-26T07:13:30;152586.72;;;8.88;100.00
51287;BME280;37364;46.974;18.916;2024-02-26T07:16:00;152602.22;;;8.95;100.00
51287;BME280;37364;46.974;18.916;2024-02-26T07:18:30;152622.91;;;9.03;100.00
51287;BME280;37364;46.974;18.916;2024-02-26T07:21:01;152655.25;;;9.16;100.00
51287;BME280;37364;46.974;18.916;2024-02-26T07:23:34;152666.88;;;9.20;100.00
51287;BME280;37364;46.974;18.916;2024-02-26T07:26:05;152696.63;;;9.32;100.00
51287;BME280;37364;46.974;18.916;2024-02-26T07:28:35;152709.59;;;9.37;100.00
51287;BME280;37364;46.974;18.916;2024-02-26T07:31:05;152743.19;;;9.50;100.00
51287;BME280;37364;46.974;18.916;2024-02-26T07:33:37;152788.50;;;9.68;100.00
51287;BME280;37364;46.974;18.916;2024-02-26T07:36:08;152798.88;;;9.73;100.00
51287;BME280;37364;46.974;18.916;2024-02-26T07:38:41;152806.59;;;9.76;100.00
51287;BME280;37364;46.974;18.916;2024-02-26T07:41:12;152837.69;;;9.88;100.00
51287;BME280;37364;46.974;18.916;2024-02-26T07:43:42;152866.13;;;9.99;100.00
51287;BME280;37364;46.974;18.916;2024-02-26T07:46:12;152902.41;;;10.14;100.00
51287;BME280;37364;46.974;18.916;2024-02-26T07:48:42;152951.63;;;10.33;100.00
51287;BME280;37364;46.974;18.916;2024-02-26T07:51:14;152934.72;;;10.26;100.00
51287;BME280;37364;46.974;18.916;2024-02-26T07:53:46;152952.91;;;10.34;100.00
51287;BME280;37364;46.974;18.916;2024-02-26T07:56:19;152977.50;;;10.43;100.00
51287;BME280;37364;46.974;18.916;2024-02-26T07:58:49;152971.06;;;10.41;100.00
51287;BME280;37364;46.974;18.916;2024-02-26T08:01:19;153004.66;;;10.54;100.00
51287;BME280;37364;46.974;18.916;2024-02-26T08:03:49;153011.19;;;10.57;100.00
51287;BME280;37364;46.974;18.916;2024-02-26T08:06:21;153003.38;;;10.54;100.00
51287;BME280;37364;46.974;18.916;2024-02-26T08:08:56;152990.44;;;10.48;100.00
51287;BME280;37364;46.974;18.916;2024-02-26T08:11:26;152971.06;;;10.41;100.00
51287;BME280;37364;46.974;18.916;2024-02-26T08:13:56;152989.16;;;10.48;100.00
51287;BME280;37364;46.974;18.916;2024-02-26T08:16:26;152969.72;;;10.40;100.00
51287;BME280;37364;46.974;18.916;2024-02-26T08:18:58;152954.19;;;10.34;100.00
51287;BME280;37364;46.974;18.916;2024-02-26T08:21:28;152930.84;;;10.25;100.00
51287;BME280;37364;46.974;18.916;2024-02-26T08:24:01;152929.56;;;10.24;100.00
51287;BME280;37364;46.974;18.916;2024-02-26T08:26:31;152938.63;;;10.28;100.00
51287;BME280;37364;46.974;18.916;2024-02-26T08:29:01;152921.81;;;10.21;100.00
51287;BME280;37364;46.974;18.916;2024-02-26T08:31:31;152939.91;;;10.28;100.00
51287;BME280;37364;46.974;18.916;2024-02-26T08:34:04;152938.63;;;10.28;100.00
51287;BME280;37364;46.974;18.916;2024-02-26T08:36:34;152914.03;;;10.18;100.00
51287;BME280;37364;46.974;18.916;2024-02-26T08:39:07;152921.81;;;10.21;100.00
51287;BME280;37364;46.974;18.916;2024-02-26T08:41:40;152933.44;;;10.26;100.00
51287;BME280;37364;46.974;18.916;2024-02-26T08:44:10;152933.44;;;10.26;100.00
51287;BME280;37364;46.974;18.916;2024-02-26T08:46:40;152939.91;;;10.28;100.00
51287;BME280;37364;46.974;18.916;2024-02-26T08:49:11;152943.84;;;10.30;100.00
51287;BME280;37364;46.974;18.916;2024-02-26T08:51:41;152956.81;;;10.35;100.00
51287;BME280;37364;46.974;18.916;2024-02-26T08:54:14;152965.81;;;10.39;100.00
51287;BME280;37364;46.974;18.916;2024-02-26T08:56:45;152980.06;;;10.44;100.00
51287;BME280;37364;46.974;18.916;2024-02-26T08:59:15;152995.66;;;10.51;100.00
51287;BME280;37364;46.974;18.916;2024-02-26T09:01:49;152927.00;;;10.23;100.00
51287;BME280;37364;46.974;18.916;2024-02-26T09:04:19;152920.47;;;10.21;100.00
51287;BME280;37364;46.974;18.916;2024-02-26T09:06:49;152936.00;;;10.27;100.00
51287;BME280;37364;46.974;18.916;2024-02-26T09:09:22;152968.44;;;10.40;100.00
51287;BME280;37364;46.974;18.916;2024-02-26T09:11:53;152991.75;;;10.49;100.00
51287;BME280;37364;46.974;18.916;2024-02-26T09:14:23;153026.72;;;10.63;100.00
51287;BME280;37364;46.974;18.916;2024-02-26T09:16:54;153061.66;;;10.77;100.00
51287;BME280;37364;46.974;18.916;2024-02-26T09:19:26;153073.31;;;10.81;100.00
51287;BME280;37364;46.974;18.916;2024-02-26T09:21:57;153085.00;;;10.86;100.00
51287;BME280;37364;46.974;18.916;2024-02-26T09:24:30;153090.16;;;10.88;100.00
51287;BME280;37364;46.974;18.916;2024-02-26T09:27:00;153108.28;;;10.95;100.00
51287;BME280;37364;46.974;18.916;2024-02-26T09:29:30;153135.50;;;11.06;100.00
51287;BME280;37364;46.974;18.916;2024-02-26T09:32:00;153157.47;;;11.15;100.00
51287;BME280;37364;46.974;18.916;2024-02-26T09:34:30;153196.34;;;11.30;100.00
51287;BME280;37364;46.974;18.916;2024-02-26T09:37:01;153175.63;;;11.22;100.00
51287;BME280;37364;46.974;18.916;2024-02-26T09:39:46;153262.41;;;11.56;100.00
51287;BME280;37364;46.974;18.916;2024-02-26T09:42:18;153311.66;;;11.76;100.00
51287;BME280;37364;46.974;18.916;2024-02-26T09:44:51;153336.28;;;11.85;100.00
51287;BME280;37364;46.974;18.916;2024-02-26T09:47:25;153366.13;;;11.97;100.00
51287;BME280;37364;46.974;18.916;2024-02-26T09:49:56;153388.19;;;12.06;100.00
51287;BME280;37364;46.974;18.916;2024-02-26T09:52:27;153401.13;;;12.11;100.00
51287;BME280;37364;46.974;18.916;2024-02-26T09:55:00;153419.28;;;12.18;100.00
51287;BME280;37364;46.974;18.916;2024-02-26T09:57:31;153418.00;;;12.18;100.00
51287;BME280;37364;46.974;18.916;2024-02-26T10:00:03;153442.63;;;12.27;100.00
51287;BME280;37364;46.974;18.916;2024-02-26T10:02:36;153456.88;;;12.33;100.00
51287;BME280;37364;46.974;18.916;2024-02-26T10:05:08;153503.53;;;12.52;100.00
51287;BME280;37364;46.974;18.916;2024-02-26T10:07:40;153525.59;;;12.60;100.00
51287;BME280;37364;46.974;18.916;2024-02-26T10:10:14;153513.91;;;12.56;100.00
51287;BME280;37364;46.974;18.916;2024-02-26T10:12:44;153535.97;;;12.64;100.00
51287;BME280;37364;46.974;18.916;2024-02-26T10:15:15;153561.91;;;12.75;100.00
51287;BME280;37364;46.974;18.916;2024-02-26T10:17:46;153543.72;;;12.68;100.00
51287;BME280;37364;46.974;18.916;2024-02-26T10:20:17;153567.06;;;12.77;100.00
51287;BME280;37364;46.974;18.916;2024-02-26T10:22:49;153583.91;;;12.83;100.00
51287;BME280;37364;46.974;18.916;2024-02-26T10:25:22;153651.38;;;13.10;100.00
51287;BME280;37364;46.974;18.916;2024-02-26T10:27:52;153634.53;;;13.03;100.00
51287;BME280;37364;46.974;18.916;2024-02-26T10:30:23;153599.47;;;12.90;100.00
51287;BME280;37364;46.974;18.916;2024-02-26T10:32:56;153669.53;;;13.17;100.00
51287;BME280;37364;46.974;18.916;2024-02-26T10:35:27;153727.94;;;13.40;100.00
51287;BME280;37364;46.974;18.916;2024-02-26T10:37:58;153708.47;;;13.33;100.00
51287;BME280;37364;46.974;18.916;2024-02-26T10:40:31;153681.22;;;13.22;100.00
51287;BME280;37364;46.974;18.916;2024-02-26T10:43:02;153725.34;;;13.39;100.00
51287;BME280;37364;46.974;18.916;2024-02-26T10:45:32;153707.19;;;13.32;100.00
51287;BME280;37364;46.974;18.916;2024-02-26T10:48:05;153787.59;;;13.64;100.00
51287;BME280;37364;46.974;18.916;2024-02-26T10:50:40;153881.03;;;14.01;100.00
51287;BME280;37364;46.974;18.916;2024-02-26T10:53:14;153857.72;;;13.92;100.00
51287;BME280;37364;46.974;18.916;2024-02-26T10:55:53;153938.19;;;14.23;100.00
51287;BME280;37364;46.974;18.916;2024-02-26T10:58:24;153971.94;;;14.37;100.00
51287;BME280;37364;46.974;18.916;2024-02-26T11:00:56;153948.56;;;14.28;100.00
51287;BME280;37364;46.974;18.916;2024-02-26T11:03:28;153831.72;;;13.81;100.00
51287;BME280;37364;46.974;18.916;2024-02-26T11:06:03;153896.63;;;14.07;100.00
51287;BME280;37364;46.974;18.916;2024-02-26T11:08:34;153860.28;;;13.93;100.00
51287;BME280;37364;46.974;18.916;2024-02-26T11:11:07;153874.56;;;13.98;100.00
51287;BME280;37364;46.974;18.916;2024-02-26T11:13:42;153868.09;;;13.96;100.00
51287;BME280;37364;46.974;18.916;2024-02-26T11:16:18;153886.22;;;14.03;100.00
51287;BME280;37364;46.974;18.916;2024-02-26T11:18:49;153861.56;;;13.93;100.00
51287;BME280;37364;46.974;18.916;2024-02-26T11:21:21;153873.28;;;13.98;100.00
51287;BME280;37364;46.974;18.916;2024-02-26T11:23:58;153960.22;;;14.32;100.00
51287;BME280;37364;46.974;18.916;2024-02-26T11:26:31;153992.69;;;14.45;100.00
51287;BME280;37364;46.974;18.916;2024-02-26T11:29:01;154006.97;;;14.51;100.00
51287;BME280;37364;46.974;18.916;2024-02-26T11:31:32;154031.69;;;14.60;100.00
51287;BME280;37364;46.974;18.916;2024-02-26T11:34:03;154049.84;;;14.68;100.00
51287;BME280;37364;46.974;18.916;2024-02-26T11:36:34;153992.69;;;14.45;100.00
51287;BME280;37364;46.974;18.916;2024-02-26T11:39:04;154052.47;;;14.69;100.00
51287;BME280;37364;46.974;18.916;2024-02-26T11:41:37;154069.31;;;14.75;100.00
51287;BME280;37364;46.974;18.916;2024-02-26T11:44:08;154086.22;;;14.82;100.00
51287;BME280;37364;46.974;18.916;2024-02-26T11:46:39;154086.22;;;14.82;100.00
51287;BME280;37364;46.974;18.916;2024-02-26T11:49:31;154062.84;;;14.73;100.00
51287;BME280;37364;46.974;18.916;2024-02-26T11:52:05;153957.66;;;14.31;100.00
51287;BME280;37364;46.974;18.916;2024-02-26T11:54:55;154021.31;;;14.56;100.00
51287;BME280;37364;46.974;18.916;2024-02-26T11:57:30;154082.34;;;14.80;100.00
51287;BME280;37364;46.974;18.916;2024-02-26T12:00:11;154036.91;;;14.62;100.00
51287;BME280;37364;46.974;18.916;2024-02-26T12:02:47;154053.75;;;14.69;100.00
51287;BME280;37364;46.974;18.916;2024-02-26T12:05:25;154095.28;;;14.86;100.00
51287;BME280;37364;46.974;18.916;2024-02-26T12:08:01;154131.69;;;15.00;100.00
51287;BME280;37364;46.974;18.916;2024-02-26T12:10:36;154103.09;;;14.89;100.00
51287;BME280;37364;46.974;18.916;2024-02-26T12:13:11;154038.19;;;14.63;100.00
51287;BME280;37364;46.974;18.916;2024-02-26T12:15:56;154122.59;;;14.96;100.00
51287;BME280;37364;46.974;18.916;2024-02-26T12:18:28;154130.38;;;14.99;100.00
51287;BME280;37364;46.974;18.916;2024-02-26T12:20:59;154083.63;;;14.81;100.00
51287;BME280;37364;46.974;18.916;2024-02-26T12:23:31;154177.13;;;15.18;100.00
51287;BME280;37364;46.974;18.916;2024-02-26T12:26:02;154158.94;;;15.11;100.00
51287;BME280;37364;46.974;18.916;2024-02-26T12:28:37;154108.28;;;14.91;100.00
51287;BME280;37364;46.974;18.916;2024-02-26T12:31:07;154156.34;;;15.10;100.00
51287;BME280;37364;46.974;18.916;2024-02-26T12:33:37;154147.25;;;15.06;100.00
51287;BME280;37364;46.974;18.916;2024-02-26T12:36:08;154148.53;;;15.07;100.00
51287;BME280;37364;46.974;18.916;2024-02-26T12:38:36;154171.94;;;15.16;100.00
51287;BME280;37364;46.974;18.916;2024-02-26T12:41:06;154129.06;;;14.99;100.00
51287;BME280;37364;46.974;18.916;2024-02-26T12:43:39;154212.19;;;15.32;100.00
51287;BME280;37364;46.974;18.916;2024-02-26T12:46:10;154216.09;;;15.33;100.00
51287;BME280;37364;46.974;18.916;2024-02-26T12:48:43;154236.88;;;15.41;100.00
51287;BME280;37364;46.974;18.916;2024-02-26T12:51:14;154295.34;;;15.65;100.00
51287;BME280;37364;46.974;18.916;2024-02-26T12:53:46;154343.44;;;15.84;100.00
51287;BME280;37364;46.974;18.916;2024-02-26T12:56:17;154342.16;;;15.83;100.00